Time;durP1;ratioP1;P1;durP2;ratioP2;P2;SDS_P1;SDS_P2;PMS_P1;PMS_P2;Temp;Humidity;BMP_temperature;BMP_pressure;BME280_temperature;BME280_humidity;BME280_pressure;Samples;Min_cycle;Max_cycle;Signal;HPM_P1;HPM_P2
2023/09/01 00:01:03;;;;;;;6.60;3.60;;;;;;;;;;4969652;28;20219;-60
2023/09/01 00:03:30;;;;;;;3.20;2.92;;;;;;;;;;4956895;28;20289;-60
2023/09/01 00:06:02;;;;;;;4.57;2.97;;;;;;;;;;4969033;28;20217;-60
2023/09/01 00:08:29;;;;;;;3.67;3.30;;;;;;;;;;4968716;28;20218;-60
2023/09/01 00:10:56;;;;;;;5.00;3.80;;;;;;;;;;4968432;28;20210;-60
2023/09/01 00:13:23;;;;;;;6.40;3.92;;;;;;;;;;4952448;28;20226;-60
2023/09/01 00:15:49;;;;;;;4.28;3.97;;;;;;;;;;4968948;28;20210;-60
2023/09/01 00:18:16;;;;;;;5.40;3.70;;;;;;;;;;4969135;28;20221;-60
2023/09/01 00:20:43;;;;;;;3.92;3.63;;;;;;;;;;4968601;28;20221;-60
2023/09/01 00:23:12;;;;;;;5.15;4.30;;;;;;;;;;4972508;28;20265;-60
2023/09/01 00:25:39;;;;;;;4.63;4.10;;;;;;;;;;4968678;28;20681;-60
2023/09/01 00:28:06;;;;;;;4.88;3.95;;;;;;;;;;4968608;28;20218;-59
2023/09/01 00:30:33;;;;;;;5.65;3.67;;;;;;;;;;4968544;28;20199;-60
2023/09/01 00:33:00;;;;;;;4.63;3.70;;;;;;;;;;4968570;28;20262;-60
2023/09/01 00:40:46;;;;;;;2.88;2.75;;;;;;;;;;5191206;23;20270;-60
2023/09/01 00:43:13;;;;;;;3.30;2.80;;;;;;;;;;4963980;28;20246;-60
2023/09/01 00:45:40;;;;;;;2.90;2.70;;;;;;;;;;4967492;28;20214;-60
2023/09/01 00:48:08;;;;;;;2.70;2.60;;;;;;;;;;4967633;28;20237;-60
2023/09/01 00:50:36;;;;;;;2.83;2.63;;;;;;;;;;4968258;28;20202;-60
2023/09/01 00:53:04;;;;;;;3.05;2.85;;;;;;;;;;4968508;28;20207;-60
2023/09/01 00:55:31;;;;;;;2.70;2.60;;;;;;;;;;4968597;28;20237;-59
2023/09/01 00:58:00;;;;;;;2.28;2.17;;;;;;;;;;4966007;28;20685;-60
2023/09/01 01:00:28;;;;;;;2.50;2.40;;;;;;;;;;4964605;28;20725;-60
2023/09/01 01:02:55;;;;;;;2.15;2.05;;;;;;;;;;4966617;28;20206;-60
2023/09/01 01:05:28;;;;;;;2.92;2.65;;;;;;;;;;4965932;28;20913;-60
2023/09/01 01:07:58;;;;;;;2.80;2.60;;;;;;;;;;4968378;28;20206;-59
2023/09/01 01:10:30;;;;;;;7.05;2.70;;;;;;;;;;4967526;28;20576;-60
2023/09/01 01:12:59;;;;;;;3.35;2.42;;;;;;;;;;4968529;28;20249;-60
2023/09/01 01:15:32;;;;;;;4.10;2.70;;;;;;;;;;4968092;28;20652;-60
2023/09/01 01:18:00;;;;;;;2.35;2.10;;;;;;;;;;4971656;28;20665;-60
2023/09/01 01:20:32;;;;;;;3.97;2.80;;;;;;;;;;4971985;28;20221;-60
2023/09/01 01:23:07;;;;;;;2.10;2.10;;;;;;;;;;4972293;28;20297;-59
2023/09/01 01:25:34;;;;;;;4.05;2.33;;;;;;;;;;4970389;28;20230;-60
2023/09/01 01:28:07;;;;;;;2.20;2.10;;;;;;;;;;4972370;28;21027;-60
2023/09/01 01:30:34;;;;;;;2.47;2.28;;;;;;;;;;4971812;28;20274;-60
2023/09/01 01:33:00;;;;;;;3.67;2.70;;;;;;;;;;4970891;28;20276;-59
2023/09/01 01:35:30;;;;;;;2.45;1.98;;;;;;;;;;4971711;28;20202;-60
2023/09/01 01:37:59;;;;;;;2.10;2.10;;;;;;;;;;4971411;28;20274;-60
2023/09/01 01:40:30;;;;;;;2.17;2.08;;;;;;;;;;4971436;28;20238;-60
2023/09/01 01:42:57;;;;;;;2.58;2.33;;;;;;;;;;4956174;28;20243;-60
2023/09/01 01:45:25;;;;;;;2.10;1.77;;;;;;;;;;4955243;28;20238;-61
2023/09/01 01:47:53;;;;;;;2.45;2.35;;;;;;;;;;4959519;28;20210;-59
2023/09/01 01:50:20;;;;;;;3.63;2.67;;;;;;;;;;4952246;28;20222;-60
2023/09/01 01:52:47;;;;;;;2.72;2.53;;;;;;;;;;4951780;28;20218;-60
2023/09/01 01:55:14;;;;;;;2.70;2.45;;;;;;;;;;4964013;28;20203;-60
2023/09/01 01:57:42;;;;;;;2.10;2.00;;;;;;;;;;4961154;28;20298;-60
2023/09/01 02:00:14;;;;;;;2.53;2.28;;;;;;;;;;4952276;28;20600;-60
2023/09/01 02:02:42;;;;;;;3.22;2.65;;;;;;;;;;4952293;29;20214;-60
2023/09/01 02:05:10;;;;;;;3.10;2.50;;;;;;;;;;4955196;28;20238;-60
2023/09/01 02:07:37;;;;;;;2.10;2.00;;;;;;;;;;4966400;28;20218;-60
2023/09/01 02:10:05;;;;;;;2.45;2.35;;;;;;;;;;4958034;28;20206;-60
2023/09/01 02:12:33;;;;;;;2.65;2.45;;;;;;;;;;4959258;28;20207;-60
2023/09/01 02:15:03;;;;;;;2.33;2.20;;;;;;;;;;4951454;28;20214;-60
2023/09/01 02:17:30;;;;;;;3.70;2.60;;;;;;;;;;4966479;28;20288;-60
2023/09/01 02:19:57;;;;;;;2.20;2.10;;;;;;;;;;4962763;28;20207;-60
2023/09/01 02:22:24;;;;;;;2.28;2.17;;;;;;;;;;4953722;28;20215;-60
2023/09/01 02:24:51;;;;;;;2.42;2.33;;;;;;;;;;4951811;28;20226;-60
2023/09/01 02:27:18;;;;;;;2.50;2.30;;;;;;;;;;4958242;28;20211;-60
2023/09/01 02:29:45;;;;;;;2.60;2.28;;;;;;;;;;4963151;28;20214;-60
2023/09/01 02:32:13;;;;;;;2.70;2.60;;;;;;;;;;4954702;28;20198;-61
2023/09/01 02:34:40;;;;;;;2.55;2.38;;;;;;;;;;4961150;28;20210;-60
2023/09/01 02:37:07;;;;;;;2.60;2.50;;;;;;;;;;4952333;28;20266;-60
2023/09/01 02:39:34;;;;;;;1.70;1.63;;;;;;;;;;4951714;28;20257;-60
2023/09/01 02:42:04;;;;;;;2.33;2.22;;;;;;;;;;4953705;28;20222;-60
2023/09/01 02:44:31;;;;;;;2.13;2.03;;;;;;;;;;4954741;28;20731;-60
2023/09/01 02:46:58;;;;;;;3.67;2.35;;;;;;;;;;4951292;29;20204;-60
2023/09/01 02:49:26;;;;;;;2.13;2.08;;;;;;;;;;4951211;29;20219;-60
2023/09/01 02:51:54;;;;;;;2.72;2.20;;;;;;;;;;4950287;28;20238;-59
2023/09/01 02:54:21;;;;;;;2.28;2.15;;;;;;;;;;4950962;29;20211;-60
2023/09/01 02:56:48;;;;;;;2.17;2.08;;;;;;;;;;4950267;28;20211;-60
2023/09/01 02:59:15;;;;;;;2.33;2.22;;;;;;;;;;4948792;28;20621;-59
2023/09/01 03:01:43;;;;;;;2.33;2.22;;;;;;;;;;4949627;29;20215;-60
2023/09/01 03:04:10;;;;;;;2.03;1.80;;;;;;;;;;4947925;28;20231;-60
2023/09/01 03:06:39;;;;;;;2.25;2.03;;;;;;;;;;4950237;29;20438;-60
2023/09/01 03:09:09;;;;;;;2.22;2.20;;;;;;;;;;4950034;29;20229;-60
2023/09/01 03:11:36;;;;;;;1.90;1.90;;;;;;;;;;4950862;28;20335;-60
2023/09/01 03:14:04;;;;;;;1.60;1.60;;;;;;;;;;4947768;29;20217;-60
2023/09/01 03:16:31;;;;;;;1.90;1.80;;;;;;;;;;4950333;29;20219;-60
2023/09/01 03:18:59;;;;;;;1.92;1.88;;;;;;;;;;4950398;29;20736;-60
2023/09/01 03:21:30;;;;;;;1.92;1.83;;;;;;;;;;4949484;28;20207;-60
2023/09/01 03:23:59;;;;;;;1.80;1.80;;;;;;;;;;4950830;28;20203;-60
2023/09/01 03:26:26;;;;;;;2.05;2.00;;;;;;;;;;4949793;29;20207;-60
2023/09/01 03:28:53;;;;;;;2.08;1.60;;;;;;;;;;4949732;28;20902;-60
2023/09/01 03:31:21;;;;;;;1.80;1.80;;;;;;;;;;4947430;29;20739;-60
2023/09/01 03:33:48;;;;;;;1.95;1.85;;;;;;;;;;4949370;29;20579;-60
2023/09/01 03:36:15;;;;;;;2.00;2.00;;;;;;;;;;4950686;28;20239;-60
2023/09/01 03:38:42;;;;;;;1.65;1.65;;;;;;;;;;4950488;28;20242;-60
2023/09/01 03:41:11;;;;;;;1.90;1.90;;;;;;;;;;4951236;28;20246;-60
2023/09/01 03:43:38;;;;;;;1.60;1.60;;;;;;;;;;4949887;28;20203;-60
2023/09/01 03:46:05;;;;;;;1.85;1.85;;;;;;;;;;4951996;28;20226;-60
2023/09/01 03:48:32;;;;;;;1.90;1.77;;;;;;;;;;4949030;29;20207;-60
2023/09/01 03:51:06;;;;;;;1.77;1.67;;;;;;;;;;4949055;29;20211;-60
2023/09/01 03:53:33;;;;;;;1.70;1.70;;;;;;;;;;4947904;28;20203;-60
2023/09/01 03:56:01;;;;;;;1.80;1.80;;;;;;;;;;4946197;29;20199;-59
2023/09/01 03:58:29;;;;;;;1.85;1.75;;;;;;;;;;4948928;29;20255;-60
2023/09/01 04:00:56;;;;;;;1.58;1.58;;;;;;;;;;4949728;28;20283;-60
2023/09/01 04:03:23;;;;;;;2.78;1.95;;;;;;;;;;4950159;28;20287;-59
2023/09/01 04:05:50;;;;;;;2.00;2.00;;;;;;;;;;4948338;28;20258;-60
2023/09/01 04:08:18;;;;;;;2.13;2.00;;;;;;;;;;4948567;29;20203;-60
2023/09/01 04:10:45;;;;;;;2.22;2.20;;;;;;;;;;4947793;28;20207;-59
2023/09/01 04:13:12;;;;;;;1.95;1.92;;;;;;;;;;4949013;28;20285;-60
2023/09/01 04:15:41;;;;;;;2.22;2.13;;;;;;;;;;4949164;28;20208;-60
2023/09/01 04:18:08;;;;;;;2.30;2.20;;;;;;;;;;4949483;28;20784;-60
2023/09/01 04:23:28;;;;;;;2.55;2.35;;;;;;;;;;4945443;28;20232;-60
2023/09/01 04:25:55;;;;;;;2.65;2.53;;;;;;;;;;4948482;28;20231;-60
2023/09/01 04:28:22;;;;;;;2.95;2.85;;;;;;;;;;4950740;28;20211;-60
2023/09/01 04:30:51;;;;;;;2.53;2.42;;;;;;;;;;4954720;28;20723;-60
2023/09/01 04:33:18;;;;;;;3.05;2.85;;;;;;;;;;4949920;28;20214;-61
2023/09/01 04:35:45;;;;;;;3.00;2.80;;;;;;;;;;4950511;28;20263;-60
2023/09/01 04:38:12;;;;;;;3.25;3.15;;;;;;;;;;4953184;28;20704;-60
2023/09/01 04:40:39;;;;;;;3.55;3.35;;;;;;;;;;4950263;28;20242;-62
2023/09/01 04:43:06;;;;;;;2.67;2.55;;;;;;;;;;4950413;28;20318;-60
2023/09/01 04:45:33;;;;;;;3.38;3.17;;;;;;;;;;4951934;28;20226;-60
2023/09/01 04:48:02;;;;;;;3.58;3.28;;;;;;;;;;4956977;28;20207;-60
2023/09/01 04:50:29;;;;;;;4.25;3.83;;;;;;;;;;4950039;28;20207;-60
2023/09/01 04:52:56;;;;;;;4.00;3.70;;;;;;;;;;4951260;29;20206;-60
2023/09/01 04:55:25;;;;;;;4.82;4.47;;;;;;;;;;4952016;28;20211;-60
2023/09/01 04:57:52;;;;;;;4.72;4.38;;;;;;;;;;4953845;28;20257;-60
2023/09/01 05:00:20;;;;;;;4.70;4.38;;;;;;;;;;4951857;28;20681;-61
2023/09/01 05:02:47;;;;;;;5.47;5.07;;;;;;;;;;4952921;29;20210;-60
2023/09/01 05:05:16;;;;;;;6.60;5.05;;;;;;;;;;4952744;28;20231;-60
2023/09/01 05:07:43;;;;;;;8.35;6.20;;;;;;;;;;4952872;28;20679;-60
2023/09/01 05:10:10;;;;;;;6.20;5.60;;;;;;;;;;4953090;28;20199;-60
2023/09/01 05:12:37;;;;;;;6.35;5.45;;;;;;;;;;4952234;29;20215;-60
2023/09/01 05:15:04;;;;;;;6.95;5.90;;;;;;;;;;4952026;29;20207;-60
2023/09/01 05:17:32;;;;;;;10.15;6.35;;;;;;;;;;4952477;29;20269;-60
2023/09/01 05:19:59;;;;;;;6.43;5.93;;;;;;;;;;4951812;29;20282;-60
2023/09/01 05:22:27;;;;;;;6.22;5.72;;;;;;;;;;4951981;29;20203;-60
2023/09/01 05:24:54;;;;;;;8.63;6.57;;;;;;;;;;4951806;29;20207;-60
2023/09/01 05:27:21;;;;;;;10.30;7.10;;;;;;;;;;4951985;29;21003;-60
2023/09/01 05:29:48;;;;;;;7.97;6.93;;;;;;;;;;4951955;29;20204;-60
2023/09/01 05:32:16;;;;;;;6.45;5.85;;;;;;;;;;4955967;28;20206;-60
2023/09/01 05:34:43;;;;;;;10.63;8.05;;;;;;;;;;4959747;28;20556;-60
2023/09/01 05:37:11;;;;;;;12.93;8.45;;;;;;;;;;4959234;28;20260;-59
2023/09/01 05:39:40;;;;;;;9.43;8.00;;;;;;;;;;4954525;28;20326;-59
2023/09/01 05:42:07;;;;;;;13.68;8.43;;;;;;;;;;4968628;28;20214;-61
2023/09/01 05:44:34;;;;;;;9.57;7.75;;;;;;;;;;4956094;28;20209;-60
2023/09/01 05:47:02;;;;;;;11.93;8.48;;;;;;;;;;4971691;28;20230;-60
2023/09/01 05:49:29;;;;;;;13.65;8.13;;;;;;;;;;4957868;28;20665;-60
2023/09/01 05:51:56;;;;;;;7.50;6.65;;;;;;;;;;4972017;28;20744;-59
2023/09/01 05:54:23;;;;;;;8.98;6.93;;;;;;;;;;4964790;28;20430;-59
2023/09/01 05:56:52;;;;;;;9.98;7.22;;;;;;;;;;4952585;29;20213;-59
2023/09/01 05:59:19;;;;;;;10.30;8.20;;;;;;;;;;4953612;28;20207;-59
2023/09/01 06:01:46;;;;;;;10.10;8.45;;;;;;;;;;4972205;28;20572;-59
2023/09/01 06:04:13;;;;;;;10.15;8.55;;;;;;;;;;4957651;28;20218;-59
2023/09/01 06:06:40;;;;;;;11.20;8.75;;;;;;;;;;4952299;28;20225;-59
2023/09/01 06:09:07;;;;;;;16.20;7.90;;;;;;;;;;4951917;28;20468;-59
2023/09/01 06:11:35;;;;;;;8.25;6.95;;;;;;;;;;4955821;28;20210;-59
2023/09/01 06:14:04;;;;;;;11.95;8.32;;;;;;;;;;4950771;29;20306;-59
2023/09/01 06:16:31;;;;;;;9.20;7.70;;;;;;;;;;4952526;29;20214;-59
2023/09/01 06:18:59;;;;;;;6.85;6.25;;;;;;;;;;4952452;28;20218;-59
2023/09/01 06:21:26;;;;;;;8.43;7.63;;;;;;;;;;4967969;28;20206;-59
2023/09/01 06:23:54;;;;;;;8.70;6.20;;;;;;;;;;4952027;29;20211;-59
2023/09/01 06:26:21;;;;;;;7.57;6.68;;;;;;;;;;4951690;29;20237;-60
2023/09/01 06:28:48;;;;;;;6.35;5.75;;;;;;;;;;4950066;29;20673;-59
2023/09/01 06:31:17;;;;;;;7.00;6.35;;;;;;;;;;4951976;28;20210;-58
2023/09/01 06:33:44;;;;;;;6.43;5.82;;;;;;;;;;4952301;29;20302;-59
2023/09/01 06:36:13;;;;;;;5.45;4.95;;;;;;;;;;4951855;29;20204;-60
2023/09/01 06:38:40;;;;;;;6.00;5.50;;;;;;;;;;4949540;29;20227;-59
2023/09/01 06:41:07;;;;;;;6.25;5.45;;;;;;;;;;4959770;28;20242;-60
2023/09/01 06:43:34;;;;;;;7.03;5.30;;;;;;;;;;4950536;29;20269;-59
2023/09/01 06:46:01;;;;;;;4.97;4.60;;;;;;;;;;4951774;29;20231;-59
2023/09/01 06:48:30;;;;;;;4.60;4.20;;;;;;;;;;4951891;28;20285;-59
2023/09/01 06:50:58;;;;;;;4.78;4.43;;;;;;;;;;4959360;28;20301;-60
2023/09/01 06:53:25;;;;;;;5.68;5.20;;;;;;;;;;4961291;28;20218;-59
2023/09/01 06:55:52;;;;;;;4.95;4.65;;;;;;;;;;4951394;29;20207;-59
2023/09/01 06:58:19;;;;;;;4.85;4.45;;;;;;;;;;4951647;28;20207;-59
2023/09/01 07:00:46;;;;;;;4.60;4.30;;;;;;;;;;4951272;28;20210;-59
2023/09/01 07:03:13;;;;;;;4.22;3.95;;;;;;;;;;4951327;29;20594;-59
2023/09/01 07:05:41;;;;;;;4.68;4.28;;;;;;;;;;4951124;29;20242;-59
2023/09/01 07:08:13;;;;;;;4.68;4.25;;;;;;;;;;4950755;28;20207;-59
2023/09/01 07:10:40;;;;;;;3.70;3.50;;;;;;;;;;4954097;28;20301;-59
2023/09/01 07:13:08;;;;;;;4.20;3.90;;;;;;;;;;4970081;28;20214;-60
2023/09/01 07:15:35;;;;;;;5.97;4.03;;;;;;;;;;4952832;28;20261;-60
2023/09/01 07:18:03;;;;;;;4.43;3.97;;;;;;;;;;4951009;29;20215;-60
2023/09/01 07:20:30;;;;;;;4.75;4.38;;;;;;;;;;4950641;28;20242;-60
2023/09/01 07:22:58;;;;;;;4.40;4.20;;;;;;;;;;4950997;28;20203;-60
2023/09/01 07:25:25;;;;;;;3.60;3.40;;;;;;;;;;4945282;29;20207;-59
2023/09/01 07:27:52;;;;;;;3.85;3.55;;;;;;;;;;4950666;29;20667;-59
2023/09/01 07:30:19;;;;;;;3.17;2.97;;;;;;;;;;4950256;29;20788;-59
2023/09/01 07:32:46;;;;;;;3.80;3.63;;;;;;;;;;4950983;28;20218;-60
2023/09/01 07:35:13;;;;;;;3.97;3.67;;;;;;;;;;4950848;29;20215;-60
2023/09/01 07:37:41;;;;;;;3.08;2.88;;;;;;;;;;4951397;28;20214;-60
2023/09/01 07:40:10;;;;;;;4.55;4.25;;;;;;;;;;4947795;29;20247;-60
2023/09/01 07:42:37;;;;;;;4.47;4.10;;;;;;;;;;4949369;28;20219;-60
2023/09/01 07:45:04;;;;;;;4.38;3.83;;;;;;;;;;4950317;28;20207;-61
2023/09/01 07:47:31;;;;;;;4.88;4.47;;;;;;;;;;4949645;29;20238;-61
2023/09/01 07:49:58;;;;;;;10.38;4.28;;;;;;;;;;4961328;28;20207;-63
2023/09/01 07:52:25;;;;;;;4.78;4.43;;;;;;;;;;4949728;29;20219;-62
2023/09/01 07:54:52;;;;;;;4.40;4.10;;;;;;;;;;4949291;28;20354;-62
2023/09/01 07:57:20;;;;;;;9.02;4.90;;;;;;;;;;4954350;28;20210;-62
2023/09/01 07:59:47;;;;;;;14.57;5.65;;;;;;;;;;4968950;28;20218;-64
2023/09/01 08:02:14;;;;;;;4.70;4.30;;;;;;;;;;4966188;28;20225;-63
2023/09/01 08:04:41;;;;;;;6.07;5.20;;;;;;;;;;4949249;28;20219;-66
2023/09/01 08:07:08;;;;;;;8.45;4.85;;;;;;;;;;4949581;29;20238;-62
2023/09/01 08:09:36;;;;;;;36.80;17.65;;;;;;;;;;4949531;29;20214;-62
2023/09/01 08:12:03;;;;;;;885.58;363.42;;;;;;;;;;4949427;29;20219;-63
2023/09/01 08:14:31;;;;;;;431.45;137.10;;;;;;;;;;4949634;28;20234;-60
2023/09/01 08:16:58;;;;;;;20.08;9.73;;;;;;;;;;4950167;29;20219;-60
2023/09/01 08:19:25;;;;;;;166.68;47.55;;;;;;;;;;4948851;28;20258;-60
2023/09/01 08:21:52;;;;;;;76.95;22.35;;;;;;;;;;4950357;28;20739;-60
2023/09/01 08:24:19;;;;;;;88.00;25.63;;;;;;;;;;4949549;28;20265;-60
2023/09/01 08:26:46;;;;;;;90.68;24.65;;;;;;;;;;4949885;28;20610;-59
2023/09/01 08:29:14;;;;;;;75.75;23.77;;;;;;;;;;4949402;29;20237;-60
2023/09/01 08:31:43;;;;;;;27.38;12.98;;;;;;;;;;4959207;28;20214;-59
2023/09/01 08:34:10;;;;;;;20.92;10.20;;;;;;;;;;4958075;28;20215;-60
2023/09/01 08:36:37;;;;;;;23.55;9.63;;;;;;;;;;4949695;28;20313;-60
2023/09/01 08:39:05;;;;;;;28.00;12.15;;;;;;;;;;4949452;29;20227;-61
2023/09/01 08:41:33;;;;;;;29.90;12.35;;;;;;;;;;4965378;28;20812;-62
2023/09/01 08:44:03;;;;;;;27.08;9.75;;;;;;;;;;4969108;28;20206;-63
2023/09/01 08:46:30;;;;;;;21.95;10.95;;;;;;;;;;4965733;28;20321;-63
2023/09/01 08:48:59;;;;;;;6.45;5.85;;;;;;;;;;4965829;28;20215;-63
2023/09/01 08:51:26;;;;;;;5.88;5.38;;;;;;;;;;4958928;28;20652;-63
2023/09/01 08:53:54;;;;;;;7.88;6.13;;;;;;;;;;4949634;29;20210;-64
2023/09/01 08:56:21;;;;;;;12.55;7.57;;;;;;;;;;4949680;28;20248;-64
2023/09/01 08:58:48;;;;;;;7.75;6.55;;;;;;;;;;4950655;28;20261;-63
2023/09/01 09:01:17;;;;;;;17.17;7.32;;;;;;;;;;4953221;28;20214;-61
2023/09/01 09:03:44;;;;;;;7.30;5.50;;;;;;;;;;4951891;28;20218;-63
2023/09/01 09:06:16;;;;;;;12.82;6.55;;;;;;;;;;4949283;28;20242;-62
2023/09/01 09:08:43;;;;;;;5.78;5.32;;;;;;;;;;4949736;29;20593;-64
2023/09/01 09:11:12;;;;;;;6.90;5.47;;;;;;;;;;4949148;29;20278;-64
2023/09/01 09:13:40;;;;;;;7.60;5.97;;;;;;;;;;4957948;28;20293;-64
2023/09/01 09:16:07;;;;;;;13.77;6.05;;;;;;;;;;4946985;28;20214;-63
2023/09/01 09:18:34;;;;;;;13.70;6.68;;;;;;;;;;4949162;29;20215;-63
2023/09/01 09:21:02;;;;;;;9.40;5.72;;;;;;;;;;4949685;29;20207;-63
2023/09/01 09:23:41;;;;;;;8.38;5.72;;;;;;;;;;4957698;28;20253;-63
2023/09/01 09:26:09;;;;;;;4.07;3.70;;;;;;;;;;4947221;28;20284;-63
2023/09/01 09:28:36;;;;;;;7.38;4.68;;;;;;;;;;4949313;29;20596;-63
2023/09/01 09:31:03;;;;;;;7.93;4.60;;;;;;;;;;4949323;28;20244;-61
2023/09/01 09:33:31;;;;;;;3.40;3.25;;;;;;;;;;4949898;29;20230;-63
2023/09/01 09:35:58;;;;;;;3.95;3.65;;;;;;;;;;4957499;28;20218;-63
2023/09/01 09:38:25;;;;;;;3.38;3.17;;;;;;;;;;4957139;28;20614;-62
2023/09/01 09:41:01;;;;;;;3.05;2.63;;;;;;;;;;4951859;28;20266;-63
2023/09/01 09:43:30;;;;;;;4.72;2.33;;;;;;;;;;4952874;29;20674;-62
2023/09/01 09:45:59;;;;;;;3.88;2.80;;;;;;;;;;4960910;28;20300;-62
2023/09/01 09:48:27;;;;;;;2.70;2.50;;;;;;;;;;4955141;28;20223;-63
2023/09/01 09:50:54;;;;;;;2.53;2.30;;;;;;;;;;4952407;29;20207;-62
2023/09/01 09:53:22;;;;;;;2.40;2.20;;;;;;;;;;4952857;28;20211;-62
2023/09/01 09:55:50;;;;;;;3.03;2.30;;;;;;;;;;4948754;28;20211;-62
2023/09/01 09:58:19;;;;;;;2.30;2.20;;;;;;;;;;4950355;28;20216;-63
2023/09/01 10:00:49;;;;;;;3.60;1.92;;;;;;;;;;4952399;28;20703;-62
2023/09/01 10:03:16;;;;;;;2.22;2.00;;;;;;;;;;4950698;28;20210;-62
2023/09/01 10:05:44;;;;;;;1.83;1.73;;;;;;;;;;4951031;28;20215;-62
2023/09/01 10:08:12;;;;;;;1.92;1.90;;;;;;;;;;4957918;28;20227;-62
2023/09/01 10:10:41;;;;;;;1.45;1.45;;;;;;;;;;4950443;28;20211;-62
2023/09/01 10:13:08;;;;;;;2.08;1.83;;;;;;;;;;4950682;29;20216;-63
2023/09/01 10:15:37;;;;;;;1.95;1.95;;;;;;;;;;4946720;28;20212;-63
2023/09/01 10:18:06;;;;;;;1.88;1.77;;;;;;;;;;4943905;28;20701;-63
2023/09/01 10:20:33;;;;;;;2.55;1.90;;;;;;;;;;4945878;28;20211;-63
2023/09/01 10:23:02;;;;;;;2.20;2.08;;;;;;;;;;4950183;28;20222;-63
2023/09/01 10:25:29;;;;;;;2.20;2.10;;;;;;;;;;4949794;28;20285;-63
2023/09/01 10:28:03;;;;;;;2.97;2.45;;;;;;;;;;4942198;28;20583;-62
2023/09/01 10:30:32;;;;;;;2.33;2.13;;;;;;;;;;4956675;28;20206;-62
2023/09/01 10:33:10;;;;;;;2.03;1.92;;;;;;;;;;4952295;28;20211;-62
2023/09/01 10:35:38;;;;;;;2.13;1.90;;;;;;;;;;4953958;28;20215;-62
2023/09/01 10:38:12;;;;;;;2.28;2.08;;;;;;;;;;4951746;29;20227;-63
2023/09/01 10:40:43;;;;;;;1.70;1.60;;;;;;;;;;4951078;28;20247;-62
2023/09/01 10:43:11;;;;;;;7.55;1.90;;;;;;;;;;4955327;28;20207;-65
2023/09/01 10:45:38;;;;;;;1.83;1.58;;;;;;;;;;4959375;28;20265;-64
2023/09/01 10:48:11;;;;;;;2.35;1.98;;;;;;;;;;4952567;28;20230;-67
2023/09/01 10:50:40;;;;;;;3.00;1.85;;;;;;;;;;4948051;28;20214;-67
2023/09/01 10:53:26;;;;;;;2.03;1.90;;;;;;;;;;4960457;28;20417;-68
2023/09/01 10:56:08;;;;;;;1.65;1.55;;;;;;;;;;4958913;28;20224;-68
2023/09/01 10:58:39;;;;;;;1.60;1.50;;;;;;;;;;4951364;28;20210;-67
2023/09/01 11:01:25;;;;;;;2.40;1.75;;;;;;;;;;4950403;28;20211;-64
2023/09/01 11:03:52;;;;;;;1.90;1.80;;;;;;;;;;4955343;28;20221;-60
2023/09/01 11:06:21;;;;;;;2.00;1.85;;;;;;;;;;4968993;28;20731;-62
2023/09/01 11:08:58;;;;;;;2.30;1.98;;;;;;;;;;4958333;28;20675;-61
2023/09/01 11:11:25;;;;;;;1.42;1.42;;;;;;;;;;4970905;28;20217;-61
2023/09/01 11:13:54;;;;;;;1.80;1.70;;;;;;;;;;4958767;28;20215;-61
2023/09/01 11:16:22;;;;;;;2.25;1.70;;;;;;;;;;4951036;29;20207;-68
2023/09/01 11:18:59;;;;;;;4.18;1.77;;;;;;;;;;4950929;28;20207;-67
2023/09/01 11:21:28;;;;;;;1.83;1.70;;;;;;;;;;4945265;28;20215;-68
2023/09/01 11:23:58;;;;;;;2.15;1.63;;;;;;;;;;4951274;28;20215;-63
2023/09/01 11:26:26;;;;;;;2.33;2.17;;;;;;;;;;4949892;28;20241;-62
2023/09/01 11:28:53;;;;;;;1.73;1.73;;;;;;;;;;4949709;28;20262;-59
2023/09/01 11:31:20;;;;;;;1.90;1.80;;;;;;;;;;4944658;29;20600;-59
2023/09/01 11:33:52;;;;;;;1.67;1.67;;;;;;;;;;4961253;28;20225;-62
2023/09/01 11:36:19;;;;;;;1.90;1.75;;;;;;;;;;4958107;28;20622;-62
2023/09/01 11:38:48;;;;;;;1.50;1.50;;;;;;;;;;4966131;28;20233;-62
2023/09/01 11:41:16;;;;;;;2.67;1.73;;;;;;;;;;4951984;28;20266;-62
2023/09/01 11:43:43;;;;;;;1.90;1.80;;;;;;;;;;4945961;28;20691;-61
2023/09/01 11:46:11;;;;;;;1.88;1.65;;;;;;;;;;4956716;28;20692;-61
2023/09/01 11:48:38;;;;;;;1.52;1.50;;;;;;;;;;4955449;28;20313;-62
2023/09/01 11:51:05;;;;;;;2.35;1.10;;;;;;;;;;4956565;28;20210;-61
2023/09/01 11:53:33;;;;;;;0.90;0.90;;;;;;;;;;4949653;28;20245;-61
2023/09/01 11:56:02;;;;;;;0.98;0.98;;;;;;;;;;4956512;28;20290;-60
2023/09/01 11:58:44;;;;;;;0.70;0.70;;;;;;;;;;4951089;28;20217;-60
2023/09/01 12:01:11;;;;;;;4.05;1.10;;;;;;;;;;4956144;28;20198;-60
2023/09/01 12:03:38;;;;;;;7.00;2.40;;;;;;;;;;4954041;28;20211;-60
2023/09/01 12:06:14;;;;;;;3.92;1.50;;;;;;;;;;4949142;29;20203;-61
2023/09/01 12:08:41;;;;;;;4.00;1.20;;;;;;;;;;4949789;29;20238;-60
2023/09/01 12:11:10;;;;;;;4.90;1.33;;;;;;;;;;4949732;29;20219;-60
2023/09/01 12:13:37;;;;;;;3.05;1.20;;;;;;;;;;4949302;29;20215;-60
2023/09/01 12:16:04;;;;;;;0.85;0.85;;;;;;;;;;4949357;29;20219;-60
2023/09/01 12:18:36;;;;;;;1.30;0.88;;;;;;;;;;4950103;29;20238;-60
2023/09/01 12:21:04;;;;;;;1.05;0.95;;;;;;;;;;4949769;29;20223;-62
2023/09/01 12:23:31;;;;;;;2.33;1.08;;;;;;;;;;4949634;29;20214;-60
2023/09/01 12:25:59;;;;;;;2.17;0.70;;;;;;;;;;4949337;29;20211;-62
2023/09/01 12:28:27;;;;;;;0.82;0.82;;;;;;;;;;4949137;29;20242;-62
2023/09/01 12:30:55;;;;;;;1.48;0.73;;;;;;;;;;4949492;29;20218;-60
2023/09/01 12:33:22;;;;;;;0.65;0.65;;;;;;;;;;4949441;29;20226;-64
2023/09/01 12:35:50;;;;;;;2.13;0.70;;;;;;;;;;4949459;29;20238;-62
2023/09/01 12:38:17;;;;;;;0.90;0.90;;;;;;;;;;4949536;28;20250;-63
2023/09/01 12:40:44;;;;;;;1.20;1.20;;;;;;;;;;4951009;28;20242;-63
2023/09/01 12:43:11;;;;;;;3.70;1.30;;;;;;;;;;4963200;28;20221;-64
2023/09/01 12:45:39;;;;;;;1.40;1.40;;;;;;;;;;4949808;28;20437;-63
2023/09/01 12:48:07;;;;;;;5.70;1.30;;;;;;;;;;4958351;28;20226;-63
2023/09/01 12:50:34;;;;;;;1.15;1.15;;;;;;;;;;4961957;28;20218;-63
2023/09/01 12:53:01;;;;;;;1.25;1.15;;;;;;;;;;4946659;28;20214;-65
2023/09/01 12:55:29;;;;;;;3.83;1.42;;;;;;;;;;4951801;28;20577;-64
2023/09/01 12:57:56;;;;;;;1.33;1.33;;;;;;;;;;4947451;28;20203;-68
2023/09/01 13:00:24;;;;;;;1.55;1.55;;;;;;;;;;4953384;28;20207;-58
2023/09/01 13:02:53;;;;;;;1.83;1.73;;;;;;;;;;4952921;28;20213;-61
2023/09/01 13:05:20;;;;;;;2.10;1.33;;;;;;;;;;4938857;28;20222;-61
2023/09/01 13:07:47;;;;;;;1.10;1.00;;;;;;;;;;4954488;28;20241;-65
2023/09/01 13:10:15;;;;;;;0.82;0.82;;;;;;;;;;4946740;28;20669;-62
2023/09/01 13:12:42;;;;;;;1.00;1.00;;;;;;;;;;4957888;28;20210;-62
2023/09/01 13:15:09;;;;;;;0.73;0.73;;;;;;;;;;4956773;28;20207;-62
2023/09/01 13:17:36;;;;;;;1.05;0.95;;;;;;;;;;4957850;28;20215;-62
2023/09/01 13:20:07;;;;;;;1.77;1.67;;;;;;;;;;4962010;28;20214;-58
2023/09/01 13:22:34;;;;;;;3.03;0.90;;;;;;;;;;4951496;28;20217;-60
2023/09/01 13:25:03;;;;;;;1.40;0.70;;;;;;;;;;4953086;28;21041;-65
2023/09/01 13:27:31;;;;;;;1.20;0.82;;;;;;;;;;4953543;29;20440;-63
2023/09/01 13:29:58;;;;;;;1.42;0.98;;;;;;;;;;4954028;29;20230;-64
2023/09/01 13:32:25;;;;;;;0.90;0.90;;;;;;;;;;4952393;29;20211;-61
2023/09/01 13:34:52;;;;;;;0.73;0.70;;;;;;;;;;4954406;28;20210;-62
2023/09/01 13:37:22;;;;;;;0.90;0.90;;;;;;;;;;4953429;28;20207;-63
2023/09/01 13:39:53;;;;;;;1.42;0.85;;;;;;;;;;4953208;28;20337;-62
2023/09/01 13:42:20;;;;;;;0.70;0.70;;;;;;;;;;4962370;28;20783;-61
2023/09/01 13:44:47;;;;;;;0.70;0.70;;;;;;;;;;4963534;28;20214;-63
2023/09/01 13:47:14;;;;;;;0.80;0.70;;;;;;;;;;4951642;28;20222;-62
2023/09/01 13:49:42;;;;;;;16.63;14.63;;;;;;;;;;4958651;28;20775;-60
2023/09/01 13:52:09;;;;;;;1.23;1.13;;;;;;;;;;4968265;28;20230;-62
2023/09/01 13:54:38;;;;;;;1.20;1.20;;;;;;;;;;4953037;29;20207;-64
2023/09/01 13:57:05;;;;;;;1.40;1.40;;;;;;;;;;4954705;28;20599;-64
2023/09/01 13:59:32;;;;;;;0.90;0.90;;;;;;;;;;4956308;28;20230;-65
2023/09/01 14:01:59;;;;;;;1.00;0.70;;;;;;;;;;4969347;28;20206;-64
2023/09/01 14:04:26;;;;;;;207.07;105.72;;;;;;;;;;4955855;28;20211;-63
2023/09/01 14:06:53;;;;;;;2.63;0.63;;;;;;;;;;4961075;28;20620;-63
2023/09/01 14:09:20;;;;;;;0.77;0.77;;;;;;;;;;4952953;28;20230;-65
2023/09/01 14:11:49;;;;;;;0.70;0.70;;;;;;;;;;4970249;28;20226;-65
2023/09/01 14:14:16;;;;;;;0.90;0.90;;;;;;;;;;4952936;28;20222;-64
2023/09/01 14:16:43;;;;;;;1.75;0.65;;;;;;;;;;4962094;28;20211;-66
2023/09/01 14:19:10;;;;;;;0.80;0.80;;;;;;;;;;4951413;28;20230;-63
2023/09/01 14:21:37;;;;;;;4.28;1.73;;;;;;;;;;4967053;28;20223;-66
2023/09/01 14:24:04;;;;;;;0.55;0.55;;;;;;;;;;4949968;28;20216;-66
2023/09/01 14:26:31;;;;;;;1.70;0.77;;;;;;;;;;4949291;28;20219;-66
2023/09/01 14:29:00;;;;;;;1.85;0.65;;;;;;;;;;4957157;28;20293;-65
2023/09/01 14:31:27;;;;;;;1.35;0.52;;;;;;;;;;4953674;28;20218;-65
2023/09/01 14:33:54;;;;;;;0.80;0.80;;;;;;;;;;4939251;28;20650;-60
2023/09/01 14:36:21;;;;;;;2.25;1.08;;;;;;;;;;4946699;28;20215;-64
2023/09/01 14:38:48;;;;;;;2.65;0.60;;;;;;;;;;4954396;28;20235;-65
2023/09/01 14:41:18;;;;;;;1.55;0.60;;;;;;;;;;4943700;28;20235;-63
2023/09/01 14:43:45;;;;;;;1.50;0.70;;;;;;;;;;4942573;29;20215;-64
2023/09/01 14:46:16;;;;;;;0.70;0.70;;;;;;;;;;4948277;28;20211;-64
2023/09/01 14:48:44;;;;;;;0.85;0.50;;;;;;;;;;4952473;28;20226;-64
2023/09/01 14:51:11;;;;;;;1.20;1.20;;;;;;;;;;4939128;28;20215;-64
2023/09/01 14:53:38;;;;;;;1.17;0.60;;;;;;;;;;4943549;28;20230;-64